sensor_id;sensor_type;location;lat;lon;timestamp;pressure;altitude;pressure_sealevel;temperature;humidity
79780;BME280;69258;52.050;10.334;2024-02-28T00:00:40;99930.66;;;20.87;46.34
79780;BME280;69258;52.050;10.334;2024-02-28T00:15:42;99941.38;;;20.87;46.17
79780;BME280;69258;52.050;10.334;2024-02-28T00:30:45;99945.72;;;20.88;45.92
79780;BME280;69258;52.050;10.334;2024-02-28T00:45:47;99967.97;;;20.88;46.02
79780;BME280;69258;52.050;10.334;2024-02-28T01:00:50;99968.78;;;20.89;45.95
79780;BME280;69258;52.050;10.334;2024-02-28T01:15:53;99971.47;;;20.89;46.10
79780;BME280;69258;52.050;10.334;2024-02-28T01:30:56;99975.19;;;20.88;46.06
79780;BME280;69258;52.050;10.334;2024-02-28T01:46:04;99974.13;;;20.89;46.23
79780;BME280;69258;52.050;10.334;2024-02-28T02:01:11;99951.91;;;20.88;46.10
79780;BME280;69258;52.050;10.334;2024-02-28T02:16:13;99947.34;;;20.89;46.14
79780;BME280;69258;52.050;10.334;2024-02-28T02:31:15;99958.06;;;20.89;46.61
79780;BME280;69258;52.050;10.334;2024-02-28T02:46:18;99940.97;;;20.90;46.19
79780;BME280;69258;52.050;10.334;2024-02-28T03:01:20;99944.66;;;20.89;46.28
79780;BME280;69258;52.050;10.334;2024-02-28T03:16:22;99941.19;;;20.88;46.31
79780;BME280;69258;52.050;10.334;2024-02-28T03:31:25;99956.44;;;20.88;46.33
79780;BME280;69258;52.050;10.334;2024-02-28T03:46:31;99967.75;;;20.90;46.39
79780;BME280;69258;52.050;10.334;2024-02-28T04:01:33;99965.09;;;20.90;46.34
79780;BME280;69258;52.050;10.334;2024-02-28T04:16:41;99987.34;;;20.90;46.54
79780;BME280;69258;52.050;10.334;2024-02-28T04:31:43;100005.25;;;20.90;46.07
79780;BME280;69258;52.050;10.334;2024-02-28T04:46:46;100033.91;;;20.89;46.21
79780;BME280;69258;52.050;10.334;2024-02-28T05:01:47;100040.09;;;20.90;46.68
79780;BME280;69258;52.050;10.334;2024-02-28T05:16:50;100051.63;;;20.90;45.98
79780;BME280;69258;52.050;10.334;2024-02-28T05:31:53;100054.31;;;20.90;46.25
79780;BME280;69258;52.050;10.334;2024-02-28T05:46:56;100056.97;;;20.90;46.51
79780;BME280;69258;52.050;10.334;2024-02-28T06:01:58;100074.72;;;20.91;46.81
79780;BME280;69258;52.050;10.334;2024-02-28T06:17:01;100093.47;;;20.91;46.23
79780;BME280;69258;52.050;10.334;2024-02-28T06:32:04;100119.44;;;20.91;46.23
79780;BME280;69258;52.050;10.334;2024-02-28T06:47:06;100138.56;;;20.88;44.65
79780;BME280;69258;52.050;10.334;2024-02-28T07:02:10;100154.66;;;20.88;44.76
79780;BME280;69258;52.050;10.334;2024-02-28T07:17:12;100141.88;;;20.90;44.76
79780;BME280;69258;52.050;10.334;2024-02-28T07:32:15;100146.22;;;20.91;44.93
79780;BME280;69258;52.050;10.334;2024-02-28T07:47:18;100154.88;;;20.93;45.07
79780;BME280;69258;52.050;10.334;2024-02-28T08:02:20;100163.56;;;20.95;45.61
79780;BME280;69258;52.050;10.334;2024-02-28T08:17:23;100158.00;;;20.96;45.98
79780;BME280;69258;52.050;10.334;2024-02-28T08:32:24;100178.41;;;20.97;45.61
79780;BME280;69258;52.050;10.334;2024-02-28T08:47:26;100179.06;;;20.99;46.04
79780;BME280;69258;52.050;10.334;2024-02-28T09:02:28;100196.75;;;21.00;46.18
79780;BME280;69258;52.050;10.334;2024-02-28T09:17:31;100195.94;;;21.00;46.46
79780;BME280;69258;52.050;10.334;2024-02-28T09:32:34;100198.63;;;21.00;46.08
79780;BME280;69258;52.050;10.334;2024-02-28T09:47:36;100212.00;;;21.00;46.73
79780;BME280;69258;52.050;10.334;2024-02-28T10:02:39;100216.56;;;20.99;46.62
79780;BME280;69258;52.050;10.334;2024-02-28T10:17:42;100230.75;;;21.00;46.92
79780;BME280;69258;52.050;10.334;2024-02-28T10:32:51;100253.28;;;21.05;47.13
79780;BME280;69258;52.050;10.334;2024-02-28T10:47:53;100259.47;;;21.06;46.87
79780;BME280;69258;52.050;10.334;2024-02-28T11:02:56;100258.81;;;21.04;47.07
79780;BME280;69258;52.050;10.334;2024-02-28T11:18:09;100255.34;;;21.03;46.69
79780;BME280;69258;52.050;10.334;2024-02-28T11:33:12;100253.91;;;21.07;47.41
79780;BME280;69258;52.050;10.334;2024-02-28T11:48:16;100244.31;;;21.13;48.16
79780;BME280;69258;52.050;10.334;2024-02-28T12:03:25;100229.50;;;21.17;48.39
79780;BME280;69258;52.050;10.334;2024-02-28T12:18:28;100229.94;;;21.21;48.13
79780;BME280;69258;52.050;10.334;2024-02-28T12:33:31;100227.25;;;21.21;47.68
79780;BME280;69258;52.050;10.334;2024-02-28T12:48:38;100216.53;;;21.21;48.08
79780;BME280;69258;52.050;10.334;2024-02-28T13:03:41;100205.81;;;21.21;48.23
79780;BME280;69258;52.050;10.334;2024-02-28T13:18:43;100186.88;;;21.22;48.31
79780;BME280;69258;52.050;10.334;2024-02-28T13:33:45;100167.06;;;21.23;48.70
79780;BME280;69258;52.050;10.334;2024-02-28T13:48:47;100159.69;;;21.25;48.12
79780;BME280;69258;52.050;10.334;2024-02-28T14:03:50;100155.16;;;21.26;48.29
79780;BME280;69258;52.050;10.334;2024-02-28T14:18:54;100146.75;;;21.35;48.67
79780;BME280;69258;52.050;10.334;2024-02-28T14:33:57;100149.06;;;21.45;49.30
79780;BME280;69258;52.050;10.334;2024-02-28T14:49:01;100153.94;;;21.35;48.86
79780;BME280;69258;52.050;10.334;2024-02-28T15:04:04;100162.00;;;21.35;48.88
79780;BME280;69258;52.050;10.334;2024-02-28T15:19:09;100153.53;;;21.38;48.85
79780;BME280;69258;52.050;10.334;2024-02-28T15:34:12;100162.81;;;21.35;49.03
79780;BME280;69258;52.050;10.334;2024-02-28T15:49:14;100162.22;;;21.33;48.56
79780;BME280;69258;52.050;10.334;2024-02-28T16:04:29;100158.47;;;21.34;49.10
79780;BME280;69258;52.050;10.334;2024-02-28T16:19:31;100147.97;;;21.33;48.96
79780;BME280;69258;52.050;10.334;2024-02-28T16:34:33;100140.94;;;21.32;49.11
79780;BME280;69258;52.050;10.334;2024-02-28T16:49:35;100155.59;;;21.29;48.75
79780;BME280;69258;52.050;10.334;2024-02-28T17:04:38;100152.25;;;21.27;49.00
79780;BME280;69258;52.050;10.334;2024-02-28T17:19:41;100166.69;;;21.26;48.82
79780;BME280;69258;52.050;10.334;2024-02-28T17:34:43;100168.13;;;21.22;48.73
79780;BME280;69258;52.050;10.334;2024-02-28T17:49:45;100174.50;;;21.21;48.57
79780;BME280;69258;52.050;10.334;2024-02-28T18:04:48;100172.22;;;21.18;48.87
79780;BME280;69258;52.050;10.334;2024-02-28T18:19:52;100165.19;;;21.17;48.23
79780;BME280;69258;52.050;10.334;2024-02-28T18:34:54;100157.34;;;21.16;48.44
79780;BME280;69258;52.050;10.334;2024-02-28T18:49:57;100143.09;;;21.15;48.20
79780;BME280;69258;52.050;10.334;2024-02-28T19:04:59;100136.94;;;21.15;48.43
79780;BME280;69258;52.050;10.334;2024-02-28T19:20:03;100128.91;;;21.15;48.11
79780;BME280;69258;52.050;10.334;2024-02-28T19:35:06;100114.03;;;21.12;48.62
79780;BME280;69258;52.050;10.334;2024-02-28T19:50:08;100112.00;;;21.14;48.49
79780;BME280;69258;52.050;10.334;2024-02-28T20:05:11;100107.84;;;21.11;48.74
79780;BME280;69258;52.050;10.334;2024-02-28T20:20:13;100118.56;;;21.11;49.20
79780;BME280;69258;52.050;10.334;2024-02-28T20:35:16;100118.72;;;21.10;48.85
79780;BME280;69258;52.050;10.334;2024-02-28T20:50:18;100101.56;;;21.04;49.39
79780;BME280;69258;52.050;10.334;2024-02-28T21:05:21;100098.28;;;21.02;49.05
79780;BME280;69258;52.050;10.334;2024-02-28T21:20:24;100092.28;;;21.00;48.93
79780;BME280;69258;52.050;10.334;2024-02-28T21:35:26;100088.53;;;20.95;49.26
79780;BME280;69258;52.050;10.334;2024-02-28T21:50:29;100075.13;;;20.88;49.06
79780;BME280;69258;52.050;10.334;2024-02-28T22:05:31;100025.22;;;20.81;49.09
79780;BME280;69258;52.050;10.334;2024-02-28T22:20:34;100026.19;;;20.73;48.89
79780;BME280;69258;52.050;10.334;2024-02-28T22:35:37;100018.94;;;20.67;48.78
79780;BME280;69258;52.050;10.334;2024-02-28T22:50:39;100008.00;;;20.62;48.59
79780;BME280;69258;52.050;10.334;2024-02-28T23:05:40;100002.59;;;20.55;48.85
79780;BME280;69258;52.050;10.334;2024-02-28T23:20:43;100009.34;;;20.51;48.85
79780;BME280;69258;52.050;10.334;2024-02-28T23:35:46;100001.94;;;20.47;49.08
79780;BME280;69258;52.050;10.334;2024-02-28T23:50:50;99990.75;;;20.43;49.04
